createdAt,value
2017-07-04T00:01:53.333Z,4.80
2017-07-04T00:04:20.859Z,5.53
2017-07-04T00:06:48.422Z,3.90
2017-07-04T00:09:15.967Z,4.25
2017-07-04T00:11:43.481Z,4.40
2017-07-04T00:14:10.982Z,3.73
2017-07-04T00:16:39.282Z,3.97
2017-07-04T00:19:06.839Z,9.00
2017-07-04T00:21:34.374Z,9.70
2017-07-04T00:24:02.676Z,9.07
2017-07-04T00:26:30.175Z,6.80
2017-07-04T00:28:57.710Z,7.37
2017-07-04T00:31:25.258Z,14.33
2017-07-04T00:33:52.802Z,17.33
2017-07-04T00:36:20.378Z,10.03
2017-07-04T00:38:47.874Z,7.93
2017-07-04T00:41:15.399Z,5.20
2017-07-04T00:43:42.939Z,7.63
2017-07-04T00:46:10.457Z,9.17
2017-07-04T00:48:37.962Z,9.18
2017-07-04T00:51:05.487Z,6.40
2017-07-04T00:53:32.988Z,7.13
2017-07-04T00:56:00.526Z,7.47
2017-07-04T00:58:28.794Z,5.97
2017-07-04T01:00:57.208Z,20.27
2017-07-04T01:03:24.878Z,15.48
2017-07-04T01:05:52.426Z,8.77
2017-07-04T01:08:19.930Z,11.43
2017-07-04T01:10:47.547Z,13.07
2017-07-04T01:13:15.102Z,16.73
2017-07-04T01:15:42.615Z,19.47
2017-07-04T01:18:10.122Z,11.50
2017-07-04T01:20:37.678Z,20.80
2017-07-04T01:25:56.862Z,14.00
2017-07-04T01:28:24.368Z,9.63
2017-07-04T01:30:51.878Z,7.03
2017-07-04T01:33:19.443Z,10.82
2017-07-04T01:35:47.002Z,8.18
2017-07-04T01:38:14.571Z,9.40
2017-07-04T01:40:42.123Z,8.25
2017-07-04T01:43:09.687Z,8.20
2017-07-04T01:45:37.250Z,7.78
2017-07-04T01:48:04.759Z,7.65
2017-07-04T01:50:32.266Z,8.57
2017-07-04T01:52:59.826Z,8.00
2017-07-04T01:55:27.363Z,8.30
2017-07-04T01:57:54.867Z,9.45
2017-07-04T02:00:22.393Z,8.40
2017-07-04T02:02:49.942Z,7.82
2017-07-04T02:05:17.520Z,7.87
2017-07-04T02:07:45.074Z,9.50
2017-07-04T02:10:12.616Z,7.75
2017-07-04T02:12:40.163Z,8.65
2017-07-04T02:15:08.432Z,8.20
2017-07-04T02:17:36.751Z,6.80
2017-07-04T02:20:04.314Z,7.87
2017-07-04T02:22:31.879Z,8.95
2017-07-04T02:24:59.429Z,7.93
2017-07-04T02:27:26.996Z,8.65
2017-07-04T02:29:54.503Z,8.90
2017-07-04T02:32:22.038Z,8.05
2017-07-04T02:34:49.538Z,9.20
2017-07-04T02:37:17.850Z,9.38
2017-07-04T02:39:45.407Z,8.20
2017-07-04T02:42:12.935Z,8.73
2017-07-04T02:44:41.238Z,9.95
2017-07-04T02:47:08.751Z,20.83
2017-07-04T02:49:36.262Z,26.02
2017-07-04T02:52:03.794Z,14.10
2017-07-04T02:54:32.094Z,22.02
2017-07-04T02:56:59.658Z,21.40
2017-07-04T02:59:27.223Z,20.02
2017-07-04T03:01:54.778Z,21.30
2017-07-04T03:04:22.338Z,28.65
2017-07-04T03:06:49.920Z,15.48
2017-07-04T03:09:17.459Z,12.65
2017-07-04T03:11:44.967Z,11.52
2017-07-04T03:14:12.583Z,9.90
2017-07-04T03:16:40.087Z,9.43
2017-07-04T03:19:07.695Z,9.05
2017-07-04T03:21:35.212Z,10.93
2017-07-04T03:24:02.819Z,10.80
2017-07-04T03:26:30.326Z,10.80
2017-07-04T03:28:57.859Z,10.05
2017-07-04T03:31:25.594Z,10.60
2017-07-04T03:33:53.155Z,10.10
2017-07-04T03:36:20.665Z,9.43
2017-07-04T03:38:48.274Z,8.38
2017-07-04T03:41:15.780Z,8.07
2017-07-04T03:43:43.398Z,7.45
2017-07-04T03:46:10.938Z,8.45
2017-07-04T03:48:39.239Z,7.47
2017-07-04T03:51:06.794Z,8.40
2017-07-04T03:53:34.355Z,7.22
2017-07-04T03:56:01.894Z,9.43
2017-07-04T03:58:30.162Z,10.10
2017-07-04T04:00:58.566Z,10.70
2017-07-04T04:03:26.107Z,10.52
2017-07-04T04:05:54.390Z,10.95
2017-07-04T04:08:21.968Z,10.30
2017-07-04T04:10:49.527Z,9.43
2017-07-04T04:13:17.038Z,9.88
2017-07-04T04:15:44.543Z,9.48
2017-07-04T04:18:12.106Z,10.52
2017-07-04T04:20:39.662Z,11.30
2017-07-04T04:23:07.229Z,11.15
2017-07-04T04:25:34.758Z,9.00
2017-07-04T04:28:03.055Z,9.75
2017-07-04T04:30:30.622Z,9.80
2017-07-04T04:32:58.183Z,9.38
2017-07-04T04:35:25.706Z,7.83
2017-07-04T04:37:53.981Z,8.50
2017-07-04T04:40:22.298Z,8.90
2017-07-04T04:42:49.831Z,9.00
2017-07-04T04:45:17.371Z,8.30
2017-07-04T04:47:44.926Z,8.85
2017-07-04T04:50:12.427Z,9.00
2017-07-04T04:52:39.991Z,8.88
2017-07-04T04:55:07.651Z,8.00
2017-07-04T04:57:35.158Z,7.55
2017-07-04T05:00:02.663Z,7.80
2017-07-04T05:02:30.212Z,7.82
2017-07-04T05:04:58.489Z,6.97
2017-07-04T05:07:26.759Z,9.02
2017-07-04T05:09:55.051Z,8.33
2017-07-04T05:12:22.591Z,10.30
2017-07-04T05:14:51.007Z,9.35
2017-07-04T05:17:18.562Z,8.30
2017-07-04T05:19:46.119Z,9.63
2017-07-04T05:22:13.626Z,9.88
2017-07-04T05:24:41.162Z,10.10
2017-07-04T05:27:08.698Z,9.60
2017-07-04T05:29:36.228Z,8.80
2017-07-04T05:32:04.499Z,10.13
2017-07-04T05:34:32.817Z,10.50
2017-07-04T05:37:00.355Z,8.82
2017-07-04T05:39:27.866Z,9.60
2017-07-04T05:41:55.370Z,9.70
2017-07-04T05:44:22.951Z,9.57
2017-07-04T05:46:50.506Z,9.87
2017-07-04T05:49:18.084Z,9.05
2017-07-04T05:51:45.591Z,10.07
2017-07-04T05:54:14.008Z,9.55
2017-07-04T05:56:41.574Z,10.00
2017-07-04T05:59:09.080Z,9.90
2017-07-04T06:01:36.619Z,11.90
2017-07-04T06:04:04.124Z,9.33
2017-07-04T06:06:31.671Z,9.75
2017-07-04T06:08:59.949Z,10.13
2017-07-04T06:11:28.263Z,9.95
2017-07-04T06:13:55.822Z,10.10
2017-07-04T06:16:23.382Z,10.20
2017-07-04T06:18:50.947Z,9.85
2017-07-04T06:21:18.503Z,11.60
2017-07-04T06:23:46.019Z,10.80
2017-07-04T06:26:13.622Z,11.00
2017-07-04T06:28:41.127Z,10.48
2017-07-04T06:31:08.639Z,10.27
2017-07-04T06:33:36.171Z,12.43
2017-07-04T06:36:03.755Z,12.95
2017-07-04T06:38:31.314Z,10.90
2017-07-04T06:40:58.831Z,12.90
2017-07-04T06:43:26.439Z,14.20
2017-07-04T06:45:53.979Z,17.80
2017-07-04T06:48:21.487Z,15.50
2017-07-04T06:50:49.119Z,17.97
2017-07-04T06:53:16.679Z,17.40
2017-07-04T06:55:44.208Z,16.00
2017-07-04T06:58:12.478Z,16.83
2017-07-04T07:00:40.777Z,16.57
2017-07-04T07:03:08.356Z,15.40
2017-07-04T07:05:35.879Z,17.60
2017-07-04T07:08:04.187Z,16.03
2017-07-04T07:10:31.699Z,17.13
2017-07-04T07:12:59.322Z,14.97
2017-07-04T07:15:26.866Z,17.00
2017-07-04T07:17:54.423Z,17.33
2017-07-04T07:20:21.932Z,17.63
2017-07-04T07:22:49.458Z,17.50
2017-07-04T07:25:16.963Z,16.40
2017-07-04T07:27:44.492Z,15.37
2017-07-04T07:30:12.002Z,15.67
2017-07-04T07:32:40.275Z,15.03
2017-07-04T07:35:08.585Z,12.63
2017-07-04T07:37:36.091Z,14.20
2017-07-04T07:40:03.690Z,13.97
2017-07-04T07:42:31.255Z,14.50
2017-07-04T07:44:58.782Z,14.83
2017-07-04T07:47:27.086Z,13.80
2017-07-04T07:49:54.594Z,13.43
2017-07-04T07:52:22.143Z,14.80
2017-07-04T07:54:49.649Z,12.37
2017-07-04T07:57:17.919Z,13.47
2017-07-04T07:59:46.224Z,12.93
2017-07-04T08:02:13.730Z,13.67
2017-07-04T08:04:41.236Z,14.47
2017-07-04T08:07:08.762Z,14.70
2017-07-04T08:09:37.035Z,14.20
2017-07-04T08:12:04.570Z,13.83
2017-07-04T08:14:32.100Z,14.83
2017-07-04T08:16:59.655Z,14.27
2017-07-04T08:19:27.189Z,14.30
2017-07-04T08:21:55.594Z,13.53
2017-07-04T08:24:23.259Z,12.37
2017-07-04T08:26:50.762Z,14.17
2017-07-04T08:29:18.264Z,12.00
2017-07-04T08:31:45.807Z,13.83
2017-07-04T08:34:14.080Z,14.50
2017-07-04T08:36:42.360Z,13.27
2017-07-04T08:39:10.763Z,12.60
2017-07-04T08:41:38.286Z,14.57
2017-07-04T08:44:05.797Z,11.93
2017-07-04T08:46:33.447Z,13.67
2017-07-04T08:49:00.950Z,13.30
2017-07-04T08:51:28.462Z,12.50
2017-07-04T08:53:56.022Z,13.80
2017-07-04T08:56:23.526Z,14.20
2017-07-04T08:58:51.049Z,12.40
2017-07-04T09:01:18.606Z,12.80
2017-07-04T09:03:46.108Z,11.67
2017-07-04T09:06:13.613Z,12.13
2017-07-04T09:08:41.142Z,14.23
2017-07-04T09:11:09.411Z,13.90
2017-07-04T09:13:36.914Z,16.70
2017-07-04T09:16:05.391Z,14.90
2017-07-04T09:18:32.895Z,14.87
2017-07-04T09:21:00.414Z,15.37
2017-07-04T09:23:27.943Z,13.37
2017-07-04T09:25:56.243Z,14.20
2017-07-04T09:28:23.770Z,14.03
2017-07-04T09:30:51.334Z,13.43
2017-07-04T09:33:19.647Z,11.63
2017-07-04T09:35:47.155Z,13.43
2017-07-04T09:38:14.682Z,12.33
2017-07-04T09:40:42.227Z,14.03
2017-07-04T09:43:09.783Z,12.40
2017-07-04T09:45:37.347Z,13.43
2017-07-04T09:48:04.902Z,12.83
2017-07-04T09:50:32.462Z,12.67
2017-07-04T09:52:59.968Z,12.40
2017-07-04T09:55:27.495Z,12.10
2017-07-04T09:57:55.023Z,11.43
2017-07-04T10:00:22.534Z,12.67
2017-07-04T10:02:50.054Z,11.37
2017-07-04T10:05:17.618Z,11.80
2017-07-04T10:07:45.175Z,11.40
2017-07-04T10:10:12.702Z,11.60
2017-07-04T10:12:41.002Z,11.57
2017-07-04T10:15:08.572Z,11.93
2017-07-04T10:17:36.132Z,11.37
2017-07-04T10:20:03.674Z,11.67
2017-07-04T10:22:31.179Z,13.93
2017-07-04T10:24:58.682Z,13.23
2017-07-04T10:27:26.999Z,12.30
2017-07-04T10:29:54.547Z,11.50
2017-07-04T10:32:22.054Z,12.73
2017-07-04T10:34:49.579Z,10.30
2017-07-04T10:37:17.123Z,13.03
2017-07-04T10:39:44.688Z,13.70
2017-07-04T10:42:12.250Z,15.40
2017-07-04T10:44:39.775Z,13.57
2017-07-04T10:47:08.080Z,14.30
2017-07-04T10:49:35.592Z,12.43
2017-07-04T10:52:03.126Z,14.50
2017-07-04T10:54:30.656Z,12.70
2017-07-04T10:56:58.182Z,14.90
2017-07-04T10:59:25.783Z,15.27
2017-07-04T11:01:53.290Z,13.30
2017-07-04T11:04:20.799Z,14.40
2017-07-04T11:06:48.339Z,16.23
2017-07-04T11:09:15.989Z,26.53
2017-07-04T11:11:43.696Z,22.20
2017-07-04T11:14:11.534Z,14.87
2017-07-04T11:16:39.532Z,13.37
2017-07-04T11:19:07.221Z,12.80
2017-07-04T11:21:34.959Z,11.80
2017-07-04T11:24:02.841Z,13.33
2017-07-04T11:26:30.694Z,13.13
2017-07-04T11:28:58.563Z,11.77
2017-07-04T11:31:27.350Z,12.60
2017-07-04T11:33:55.934Z,13.30
2017-07-04T11:36:24.722Z,12.43
2017-07-04T11:38:52.590Z,12.73
2017-07-04T11:41:20.118Z,12.07
2017-07-04T11:43:47.638Z,11.63
2017-07-04T11:46:15.172Z,13.20
2017-07-04T11:48:42.703Z,13.57
2017-07-04T11:51:10.219Z,14.27
2017-07-04T11:53:37.756Z,13.10
2017-07-04T11:56:05.266Z,13.80
2017-07-04T11:58:33.571Z,14.10
2017-07-04T12:01:01.131Z,12.60
2017-07-04T12:03:28.769Z,14.40
2017-07-04T12:05:57.166Z,12.00
2017-07-04T12:08:24.675Z,13.97
2017-07-04T12:10:52.215Z,14.30
2017-07-04T12:13:19.749Z,14.13
2017-07-04T12:15:47.255Z,14.50
2017-07-04T12:18:14.779Z,13.50
2017-07-04T12:20:43.158Z,14.97
2017-07-04T12:23:10.703Z,49.83
2017-07-04T12:25:38.254Z,24.30
2017-07-04T12:28:05.764Z,14.70
2017-07-04T12:30:33.294Z,13.97
2017-07-04T12:33:00.843Z,14.50
2017-07-04T12:35:28.355Z,12.77
2017-07-04T12:37:55.893Z,13.03
2017-07-04T12:40:23.399Z,13.47
2017-07-04T12:42:51.690Z,14.33
2017-07-04T12:45:19.207Z,13.63
2017-07-04T12:47:46.719Z,13.43
2017-07-04T12:50:14.251Z,13.40
2017-07-04T12:52:42.535Z,14.27
2017-07-04T12:55:10.067Z,15.83
2017-07-04T12:57:37.598Z,15.90
2017-07-04T13:00:05.335Z,13.33
2017-07-04T13:02:32.854Z,14.20
2017-07-04T13:05:00.357Z,12.70
2017-07-04T13:07:27.891Z,14.47
2017-07-04T13:09:56.172Z,12.70
2017-07-04T13:12:23.675Z,14.67
2017-07-04T13:14:51.207Z,14.53
2017-07-04T13:17:18.719Z,13.37
2017-07-04T13:19:46.245Z,14.60
2017-07-04T13:22:13.782Z,11.47
2017-07-04T13:24:41.292Z,12.10
2017-07-04T13:27:08.828Z,15.17
2017-07-04T13:29:36.338Z,12.60
2017-07-04T13:32:04.635Z,14.47
2017-07-04T13:34:32.163Z,17.80
2017-07-04T13:37:00.435Z,17.20
2017-07-04T13:39:28.846Z,14.70
2017-07-04T13:41:56.423Z,17.10
2017-07-04T13:44:23.927Z,28.77
2017-07-04T13:46:51.535Z,16.03
2017-07-04T13:49:19.043Z,12.80
2017-07-04T13:51:46.579Z,14.37
2017-07-04T13:54:14.091Z,14.77
2017-07-04T13:56:42.491Z,16.00
2017-07-04T13:59:10.051Z,14.20
2017-07-04T14:01:37.612Z,13.23
2017-07-04T14:04:05.171Z,13.93
2017-07-04T14:06:32.678Z,13.87
2017-07-04T14:09:00.395Z,12.30
2017-07-04T14:11:27.900Z,14.20
2017-07-04T14:13:55.403Z,16.30
2017-07-04T14:16:22.930Z,13.40
2017-07-04T14:18:50.532Z,15.30
2017-07-04T14:21:18.040Z,15.63
2017-07-04T14:23:45.646Z,15.03
2017-07-04T14:26:13.215Z,13.67
2017-07-04T14:28:40.770Z,12.20
2017-07-04T14:31:08.340Z,13.97
2017-07-04T14:33:35.868Z,14.10
2017-07-04T14:36:04.168Z,11.93
2017-07-04T14:38:31.731Z,11.40
2017-07-04T14:40:59.235Z,14.70
2017-07-04T14:43:26.844Z,13.97
2017-07-04T14:45:54.355Z,12.53
2017-07-04T14:48:21.967Z,15.23
2017-07-04T14:50:49.495Z,14.60
2017-07-04T14:53:17.804Z,11.43
2017-07-04T14:55:45.367Z,12.57
2017-07-04T14:58:12.877Z,11.87
2017-07-04T15:00:40.407Z,11.67
2017-07-04T15:03:07.967Z,13.80
2017-07-04T15:05:35.470Z,15.00
2017-07-04T15:08:03.759Z,11.87
2017-07-04T15:10:31.344Z,14.10
2017-07-04T15:12:59.108Z,15.00
2017-07-04T15:15:26.675Z,13.30
2017-07-04T15:17:54.227Z,16.40
2017-07-04T15:20:21.778Z,16.37
2017-07-04T15:22:49.347Z,16.87
2017-07-04T15:25:16.904Z,15.90
2017-07-04T15:27:44.562Z,17.27
2017-07-04T15:30:12.067Z,14.80
2017-07-04T15:32:39.588Z,17.07
2017-07-04T15:35:07.116Z,14.60
2017-07-04T15:37:35.507Z,13.77
2017-07-04T15:40:03.079Z,15.70
2017-07-04T15:42:30.638Z,16.77
2017-07-04T15:44:58.200Z,13.80
2017-07-04T15:47:25.766Z,15.93
2017-07-04T15:49:53.319Z,12.73
2017-07-04T15:52:20.880Z,12.63
2017-07-04T15:54:48.395Z,13.70
2017-07-04T15:57:15.939Z,16.47
2017-07-04T15:59:43.446Z,15.77
2017-07-04T16:02:11.021Z,13.70
2017-07-04T16:04:38.579Z,15.07
2017-07-04T16:07:06.146Z,13.07
2017-07-04T16:09:33.708Z,13.13
2017-07-04T16:12:01.207Z,15.07
2017-07-04T16:14:28.751Z,14.00
2017-07-04T16:16:56.281Z,13.67
2017-07-04T16:19:23.787Z,14.00
2017-07-04T16:21:51.317Z,14.20
2017-07-04T16:24:18.810Z,14.70
2017-07-04T16:26:46.418Z,10.90
2017-07-04T16:29:13.975Z,12.20
2017-07-04T16:31:41.539Z,13.30
2017-07-04T16:34:09.065Z,13.00
2017-07-04T16:36:37.383Z,14.63
2017-07-04T16:39:04.935Z,14.37
2017-07-04T16:41:32.442Z,12.77
2017-07-04T16:43:59.941Z,13.67
2017-07-04T16:46:27.474Z,14.70
2017-07-04T16:48:55.067Z,12.80
2017-07-04T16:51:22.612Z,17.43
2017-07-04T16:53:50.891Z,17.23
2017-07-04T16:56:19.155Z,12.40
2017-07-04T16:58:47.452Z,12.13
2017-07-04T17:01:15.018Z,11.10
2017-07-04T17:03:42.578Z,10.63
2017-07-04T17:06:10.139Z,11.07
2017-07-04T17:08:37.644Z,14.80
2017-07-04T17:11:05.167Z,11.20
2017-07-04T17:13:32.676Z,11.97
2017-07-04T17:16:00.214Z,13.30
2017-07-04T17:18:27.743Z,11.37
2017-07-04T17:20:55.303Z,12.20
2017-07-04T17:23:22.868Z,11.03
2017-07-04T17:25:50.367Z,14.53
2017-07-04T17:28:18.003Z,14.37
2017-07-04T17:30:47.179Z,13.00
2017-07-04T17:33:14.734Z,13.00
2017-07-04T17:35:42.299Z,10.83
2017-07-04T17:38:09.860Z,16.10
2017-07-04T17:40:37.415Z,12.17
2017-07-04T17:43:04.983Z,10.93
2017-07-04T17:45:32.539Z,11.53
2017-07-04T17:48:00.034Z,10.90
2017-07-04T17:50:27.651Z,12.60
2017-07-04T17:52:55.155Z,11.03
2017-07-04T17:55:22.683Z,12.00
2017-07-04T17:57:50.452Z,13.50
2017-07-04T18:00:18.320Z,9.33
2017-07-04T18:02:46.391Z,9.47
2017-07-04T18:05:14.260Z,10.73
2017-07-04T18:07:41.959Z,9.80
2017-07-04T18:10:10.608Z,9.00
2017-07-04T18:12:38.272Z,10.50
2017-07-04T18:15:05.819Z,10.00
2017-07-04T18:17:33.318Z,8.90
2017-07-04T18:20:00.810Z,9.30
2017-07-04T18:22:29.108Z,7.83
2017-07-04T18:24:56.685Z,7.97
2017-07-04T18:27:24.227Z,8.40
2017-07-04T18:29:51.759Z,7.53
2017-07-04T18:32:19.349Z,6.87
2017-07-04T18:34:46.912Z,6.70
2017-07-04T18:37:14.470Z,7.93
2017-07-04T18:39:41.979Z,7.93
2017-07-04T18:42:09.516Z,9.70
2017-07-04T18:44:37.019Z,8.80
2017-07-04T18:47:05.282Z,9.93
2017-07-04T18:49:32.887Z,9.23
2017-07-04T18:52:00.452Z,11.20
2017-07-04T18:54:28.003Z,12.03
2017-07-04T18:56:55.563Z,11.23
2017-07-04T18:59:23.111Z,11.07
2017-07-04T19:01:50.610Z,13.63
2017-07-04T19:04:18.145Z,13.97
2017-07-04T19:06:45.704Z,13.10
2017-07-04T19:09:13.263Z,12.40
2017-07-04T19:11:40.825Z,14.10
2017-07-04T19:14:08.384Z,10.40
2017-07-04T19:16:35.926Z,12.83
2017-07-04T19:19:04.191Z,12.20
2017-07-04T19:21:32.498Z,11.90
2017-07-04T19:24:00.028Z,13.43
2017-07-04T19:26:28.332Z,12.70
2017-07-04T19:28:55.895Z,10.50
2017-07-04T19:31:23.467Z,13.73
2017-07-04T19:33:50.972Z,9.33
2017-07-04T19:36:18.504Z,13.03
2017-07-04T19:38:46.008Z,9.33
2017-07-04T19:41:14.280Z,10.47
2017-07-04T19:43:42.688Z,10.67
2017-07-04T19:46:10.196Z,12.33
2017-07-04T19:48:37.703Z,10.77
2017-07-04T19:51:05.231Z,9.70
2017-07-04T19:53:33.543Z,11.57
2017-07-04T19:56:01.072Z,10.27
2017-07-04T19:58:29.339Z,12.03
2017-07-04T20:00:56.980Z,10.87
2017-07-04T20:03:24.503Z,9.77
2017-07-04T20:05:52.011Z,10.80
2017-07-04T20:08:19.553Z,11.10
2017-07-04T20:10:47.066Z,11.40
2017-07-04T20:13:14.575Z,10.70
2017-07-04T20:15:42.098Z,10.00
2017-07-04T20:18:09.663Z,9.90
2017-07-04T20:20:37.211Z,9.37
2017-07-04T20:23:04.710Z,9.90
2017-07-04T20:25:32.328Z,8.60
2017-07-04T20:27:59.894Z,7.70
2017-07-04T20:30:27.452Z,8.77
2017-07-04T20:32:54.979Z,10.30
2017-07-04T20:35:23.279Z,10.50
2017-07-04T20:37:50.782Z,11.40
2017-07-04T20:40:18.307Z,13.30
2017-07-04T20:42:45.867Z,12.33
2017-07-04T20:45:13.435Z,10.53
2017-07-04T20:47:40.980Z,9.20
2017-07-04T20:50:08.495Z,8.63
2017-07-04T20:52:35.995Z,9.90
2017-07-04T20:55:04.394Z,8.13
2017-07-04T20:57:31.898Z,8.40
2017-07-04T20:59:59.441Z,9.20
2017-07-04T21:02:26.942Z,8.73
2017-07-04T21:04:55.216Z,9.80
2017-07-04T21:07:23.519Z,10.03
2017-07-04T21:09:51.078Z,10.00
2017-07-04T21:12:18.576Z,9.33
2017-07-04T21:14:46.295Z,10.33
2017-07-04T21:17:13.869Z,10.20
2017-07-04T21:19:41.419Z,8.63
2017-07-04T21:22:08.942Z,9.30
2017-07-04T21:24:37.215Z,8.70
2017-07-04T21:27:05.532Z,9.33
2017-07-04T21:29:33.047Z,10.70
2017-07-04T21:32:00.552Z,13.57
2017-07-04T21:34:28.091Z,12.83
2017-07-04T21:36:56.382Z,13.03
2017-07-04T21:39:23.884Z,12.03
2017-07-04T21:41:51.427Z,10.77
2017-07-04T21:44:18.930Z,10.43
2017-07-04T21:46:47.239Z,10.20
2017-07-04T21:49:14.787Z,11.20
2017-07-04T21:51:43.056Z,11.63
2017-07-04T21:54:11.357Z,10.97
2017-07-04T21:56:38.911Z,11.40
2017-07-04T21:59:06.695Z,13.47
2017-07-04T22:01:34.563Z,13.40
2017-07-04T22:04:02.252Z,15.00
2017-07-04T22:06:30.099Z,13.53
2017-07-04T22:08:57.742Z,12.10
2017-07-04T22:11:25.298Z,11.13
2017-07-04T22:13:52.863Z,12.43
2017-07-04T22:16:20.419Z,14.93
2017-07-04T22:18:47.979Z,11.98
2017-07-04T22:21:15.483Z,11.93
2017-07-04T22:23:43.197Z,11.40
2017-07-04T22:26:10.695Z,10.20
2017-07-04T22:28:38.223Z,10.80
2017-07-04T22:31:05.747Z,10.17
2017-07-04T22:33:34.058Z,11.10
2017-07-04T22:36:01.614Z,11.90
2017-07-04T22:38:29.182Z,11.73
2017-07-04T22:40:56.729Z,10.20
2017-07-04T22:43:24.244Z,9.85
2017-07-04T22:45:51.747Z,11.00
2017-07-04T22:48:19.314Z,10.00
2017-07-04T22:50:46.818Z,11.20
2017-07-04T22:53:14.435Z,10.82
2017-07-04T22:55:41.992Z,10.00
2017-07-04T22:58:09.559Z,11.20
2017-07-04T23:00:37.118Z,9.95
2017-07-04T23:03:04.680Z,9.87
2017-07-04T23:05:32.187Z,11.32
2017-07-04T23:07:59.719Z,10.63
2017-07-04T23:10:27.254Z,10.80
2017-07-04T23:12:54.810Z,9.50
2017-07-04T23:15:22.317Z,10.45
2017-07-04T23:17:49.930Z,10.20
2017-07-04T23:20:17.491Z,10.20
2017-07-04T23:22:45.055Z,11.12
2017-07-04T23:25:13.606Z,13.07
2017-07-04T23:27:41.875Z,13.20
2017-07-04T23:30:10.196Z,12.50
2017-07-04T23:32:37.752Z,12.05
2017-07-04T23:35:05.410Z,12.27
2017-07-04T23:37:32.971Z,11.07
2017-07-04T23:40:00.534Z,11.00
2017-07-04T23:42:28.062Z,11.30
2017-07-04T23:44:56.331Z,12.35
2017-07-04T23:47:24.643Z,13.02
2017-07-04T23:49:52.208Z,10.57
2017-07-04T23:52:19.743Z,11.07
2017-07-04T23:54:48.023Z,12.85
2017-07-04T23:57:15.555Z,11.52
2017-07-04T23:59:43.161Z,11.77
